sensor_id;sensor_type;location;lat;lon;timestamp;P1;durP1;ratioP1;P2;durP2;ratioP2
8857;SDS011;4465;50.904;4.696;2023-11-21T00:00:22;68.57;;;22.60;;
8857;SDS011;4465;50.904;4.696;2023-11-21T00:02:48;80.47;;;23.40;;
8857;SDS011;4465;50.904;4.696;2023-11-21T00:05:14;74.07;;;23.08;;
8857;SDS011;4465;50.904;4.696;2023-11-21T00:07:41;70.20;;;21.52;;
8857;SDS011;4465;50.904;4.696;2023-11-21T00:10:09;73.90;;;21.40;;
8857;SDS011;4465;50.904;4.696;2023-11-21T00:12:36;79.25;;;21.75;;
8857;SDS011;4465;50.904;4.696;2023-11-21T00:15:02;86.47;;;21.00;;
8857;SDS011;4465;50.904;4.696;2023-11-21T00:17:30;77.13;;;22.17;;
8857;SDS011;4465;50.904;4.696;2023-11-21T00:19:58;61.88;;;18.20;;
8857;SDS011;4465;50.904;4.696;2023-11-21T00:22:24;65.05;;;18.42;;
8857;SDS011;4465;50.904;4.696;2023-11-21T00:24:53;66.90;;;19.50;;
8857;SDS011;4465;50.904;4.696;2023-11-21T00:27:18;73.15;;;21.08;;
8857;SDS011;4465;50.904;4.696;2023-11-21T00:29:45;67.22;;;19.83;;
8857;SDS011;4465;50.904;4.696;2023-11-21T00:32:11;59.70;;;19.55;;
8857;SDS011;4465;50.904;4.696;2023-11-21T00:34:37;65.22;;;18.85;;
8857;SDS011;4465;50.904;4.696;2023-11-21T00:37:03;67.57;;;20.30;;
8857;SDS011;4465;50.904;4.696;2023-11-21T00:39:29;66.32;;;19.48;;
8857;SDS011;4465;50.904;4.696;2023-11-21T00:41:57;64.88;;;20.00;;
8857;SDS011;4465;50.904;4.696;2023-11-21T00:44:23;72.80;;;18.98;;
8857;SDS011;4465;50.904;4.696;2023-11-21T00:46:49;59.58;;;17.27;;
8857;SDS011;4465;50.904;4.696;2023-11-21T00:49:15;55.55;;;17.63;;
8857;SDS011;4465;50.904;4.696;2023-11-21T00:51:44;57.70;;;16.75;;
8857;SDS011;4465;50.904;4.696;2023-11-21T00:54:09;64.90;;;15.60;;
8857;SDS011;4465;50.904;4.696;2023-11-21T00:56:36;50.67;;;15.55;;
8857;SDS011;4465;50.904;4.696;2023-11-21T00:59:07;60.20;;;15.48;;
8857;SDS011;4465;50.904;4.696;2023-11-21T01:01:33;58.90;;;14.13;;
8857;SDS011;4465;50.904;4.696;2023-11-21T01:03:59;52.08;;;16.15;;
8857;SDS011;4465;50.904;4.696;2023-11-21T01:06:25;54.13;;;15.52;;
8857;SDS011;4465;50.904;4.696;2023-11-21T01:08:51;60.58;;;17.55;;
8857;SDS011;4465;50.904;4.696;2023-11-21T01:11:20;50.08;;;15.50;;
8857;SDS011;4465;50.904;4.696;2023-11-21T01:13:45;51.30;;;14.05;;
8857;SDS011;4465;50.904;4.696;2023-11-21T01:16:11;55.47;;;16.30;;
8857;SDS011;4465;50.904;4.696;2023-11-21T01:18:37;57.42;;;17.48;;
8857;SDS011;4465;50.904;4.696;2023-11-21T01:21:03;53.67;;;16.23;;
8857;SDS011;4465;50.904;4.696;2023-11-21T01:23:30;65.07;;;17.33;;
8857;SDS011;4465;50.904;4.696;2023-11-21T01:25:56;60.20;;;16.70;;
8857;SDS011;4465;50.904;4.696;2023-11-21T01:28:22;55.03;;;17.13;;
8857;SDS011;4465;50.904;4.696;2023-11-21T01:30:48;62.50;;;16.52;;
8857;SDS011;4465;50.904;4.696;2023-11-21T01:33:17;47.50;;;14.40;;
8857;SDS011;4465;50.904;4.696;2023-11-21T01:35:43;59.13;;;16.37;;
8857;SDS011;4465;50.904;4.696;2023-11-21T01:38:11;60.88;;;16.95;;
8857;SDS011;4465;50.904;4.696;2023-11-21T01:40:37;55.35;;;15.05;;
8857;SDS011;4465;50.904;4.696;2023-11-21T01:43:04;66.43;;;16.88;;
8857;SDS011;4465;50.904;4.696;2023-11-21T01:45:30;69.53;;;17.33;;
8857;SDS011;4465;50.904;4.696;2023-11-21T01:47:59;62.00;;;18.05;;
8857;SDS011;4465;50.904;4.696;2023-11-21T01:50:26;58.83;;;17.13;;
8857;SDS011;4465;50.904;4.696;2023-11-21T01:52:53;55.80;;;16.35;;
8857;SDS011;4465;50.904;4.696;2023-11-21T01:55:21;66.05;;;17.23;;
8857;SDS011;4465;50.904;4.696;2023-11-21T01:57:47;96.07;;;19.75;;
8857;SDS011;4465;50.904;4.696;2023-11-21T02:00:16;65.20;;;19.65;;
8857;SDS011;4465;50.904;4.696;2023-11-21T02:02:45;87.85;;;19.42;;
8857;SDS011;4465;50.904;4.696;2023-11-21T02:05:12;92.82;;;18.90;;
8857;SDS011;4465;50.904;4.696;2023-11-21T02:07:40;84.30;;;18.48;;
8857;SDS011;4465;50.904;4.696;2023-11-21T02:10:10;98.35;;;19.67;;
8857;SDS011;4465;50.904;4.696;2023-11-21T02:12:52;83.30;;;18.98;;
8857;SDS011;4465;50.904;4.696;2023-11-21T02:15:18;78.25;;;19.08;;
8857;SDS011;4465;50.904;4.696;2023-11-21T02:17:48;92.82;;;19.02;;
8857;SDS011;4465;50.904;4.696;2023-11-21T02:20:19;65.43;;;14.80;;
8857;SDS011;4465;50.904;4.696;2023-11-21T02:22:54;84.10;;;18.52;;
8857;SDS011;4465;50.904;4.696;2023-11-21T02:25:24;81.45;;;18.27;;
8857;SDS011;4465;50.904;4.696;2023-11-21T02:27:54;80.75;;;18.27;;
8857;SDS011;4465;50.904;4.696;2023-11-21T02:30:23;70.28;;;17.92;;
8857;SDS011;4465;50.904;4.696;2023-11-21T02:32:59;69.10;;;16.55;;
8857;SDS011;4465;50.904;4.696;2023-11-21T02:35:26;78.30;;;17.58;;
8857;SDS011;4465;50.904;4.696;2023-11-21T02:37:52;83.97;;;18.98;;
8857;SDS011;4465;50.904;4.696;2023-11-21T02:40:19;73.35;;;17.02;;
8857;SDS011;4465;50.904;4.696;2023-11-21T02:42:50;66.55;;;16.95;;
8857;SDS011;4465;50.904;4.696;2023-11-21T02:45:21;91.53;;;18.38;;
8857;SDS011;4465;50.904;4.696;2023-11-21T02:47:47;67.82;;;17.83;;
8857;SDS011;4465;50.904;4.696;2023-11-21T02:50:24;106.82;;;18.75;;
8857;SDS011;4465;50.904;4.696;2023-11-21T02:52:50;101.60;;;18.65;;
8857;SDS011;4465;50.904;4.696;2023-11-21T02:55:16;108.40;;;20.13;;
8857;SDS011;4465;50.904;4.696;2023-11-21T02:57:42;82.47;;;18.15;;
8857;SDS011;4465;50.904;4.696;2023-11-21T03:00:08;75.65;;;20.63;;
8857;SDS011;4465;50.904;4.696;2023-11-21T03:02:40;75.88;;;19.00;;
8857;SDS011;4465;50.904;4.696;2023-11-21T03:05:09;76.88;;;19.77;;
8857;SDS011;4465;50.904;4.696;2023-11-21T03:07:38;82.18;;;20.92;;
8857;SDS011;4465;50.904;4.696;2023-11-21T03:10:06;76.03;;;19.23;;
8857;SDS011;4465;50.904;4.696;2023-11-21T03:12:34;84.72;;;20.77;;
8857;SDS011;4465;50.904;4.696;2023-11-21T03:15:00;80.80;;;19.52;;
8857;SDS011;4465;50.904;4.696;2023-11-21T03:17:28;87.97;;;18.52;;
8857;SDS011;4465;50.904;4.696;2023-11-21T03:19:57;95.30;;;19.95;;
8857;SDS011;4465;50.904;4.696;2023-11-21T03:22:23;89.35;;;19.98;;
8857;SDS011;4465;50.904;4.696;2023-11-21T03:24:51;76.55;;;19.95;;
8857;SDS011;4465;50.904;4.696;2023-11-21T03:27:18;88.57;;;19.33;;
8857;SDS011;4465;50.904;4.696;2023-11-21T03:29:44;84.95;;;19.42;;
8857;SDS011;4465;50.904;4.696;2023-11-21T03:32:12;92.78;;;20.73;;
8857;SDS011;4465;50.904;4.696;2023-11-21T03:34:52;96.65;;;19.70;;
8857;SDS011;4465;50.904;4.696;2023-11-21T03:37:20;83.03;;;20.77;;
8857;SDS011;4465;50.904;4.696;2023-11-21T03:39:49;92.57;;;21.52;;
8857;SDS011;4465;50.904;4.696;2023-11-21T03:42:15;75.90;;;20.15;;
8857;SDS011;4465;50.904;4.696;2023-11-21T03:44:41;83.68;;;20.73;;
8857;SDS011;4465;50.904;4.696;2023-11-21T03:47:06;91.47;;;21.13;;
8857;SDS011;4465;50.904;4.696;2023-11-21T03:49:32;83.55;;;20.65;;
8857;SDS011;4465;50.904;4.696;2023-11-21T03:51:58;91.57;;;19.42;;
8857;SDS011;4465;50.904;4.696;2023-11-21T03:54:24;87.03;;;20.58;;
8857;SDS011;4465;50.904;4.696;2023-11-21T03:56:50;85.72;;;20.60;;
8857;SDS011;4465;50.904;4.696;2023-11-21T03:59:17;82.88;;;20.02;;
8857;SDS011;4465;50.904;4.696;2023-11-21T04:01:43;84.95;;;17.63;;
8857;SDS011;4465;50.904;4.696;2023-11-21T04:04:09;83.63;;;17.85;;
8857;SDS011;4465;50.904;4.696;2023-11-21T04:06:35;94.40;;;18.10;;
8857;SDS011;4465;50.904;4.696;2023-11-21T04:09:02;80.50;;;19.10;;
8857;SDS011;4465;50.904;4.696;2023-11-21T04:11:33;95.03;;;18.40;;
8857;SDS011;4465;50.904;4.696;2023-11-21T04:14:01;84.47;;;19.27;;
8857;SDS011;4465;50.904;4.696;2023-11-21T04:16:30;82.53;;;19.48;;
8857;SDS011;4465;50.904;4.696;2023-11-21T04:18:58;77.20;;;18.58;;
8857;SDS011;4465;50.904;4.696;2023-11-21T04:21:23;79.20;;;20.60;;
8857;SDS011;4465;50.904;4.696;2023-11-21T04:23:49;76.03;;;19.67;;
8857;SDS011;4465;50.904;4.696;2023-11-21T04:26:15;83.25;;;19.98;;
8857;SDS011;4465;50.904;4.696;2023-11-21T04:28:44;76.90;;;18.95;;
8857;SDS011;4465;50.904;4.696;2023-11-21T04:31:10;80.15;;;20.75;;
8857;SDS011;4465;50.904;4.696;2023-11-21T04:33:36;90.05;;;20.88;;
8857;SDS011;4465;50.904;4.696;2023-11-21T04:36:04;71.15;;;19.17;;
8857;SDS011;4465;50.904;4.696;2023-11-21T04:38:30;82.20;;;20.70;;
8857;SDS011;4465;50.904;4.696;2023-11-21T04:40:56;75.95;;;20.17;;
8857;SDS011;4465;50.904;4.696;2023-11-21T04:43:22;84.75;;;19.88;;
8857;SDS011;4465;50.904;4.696;2023-11-21T04:45:48;84.40;;;19.58;;
8857;SDS011;4465;50.904;4.696;2023-11-21T04:48:14;83.43;;;18.95;;
8857;SDS011;4465;50.904;4.696;2023-11-21T04:50:40;76.63;;;20.08;;
8857;SDS011;4465;50.904;4.696;2023-11-21T04:53:06;71.18;;;16.63;;
8857;SDS011;4465;50.904;4.696;2023-11-21T04:55:34;72.57;;;16.58;;
8857;SDS011;4465;50.904;4.696;2023-11-21T04:58:00;80.72;;;18.08;;
8857;SDS011;4465;50.904;4.696;2023-11-21T05:00:26;73.03;;;18.58;;
8857;SDS011;4465;50.904;4.696;2023-11-21T05:02:52;72.70;;;16.52;;
8857;SDS011;4465;50.904;4.696;2023-11-21T05:05:18;75.85;;;17.80;;
8857;SDS011;4465;50.904;4.696;2023-11-21T05:07:44;68.78;;;17.42;;
8857;SDS011;4465;50.904;4.696;2023-11-21T05:10:10;71.10;;;17.17;;
8857;SDS011;4465;50.904;4.696;2023-11-21T05:12:37;70.82;;;15.73;;
8857;SDS011;4465;50.904;4.696;2023-11-21T05:15:06;59.00;;;17.10;;
8857;SDS011;4465;50.904;4.696;2023-11-21T05:17:39;66.00;;;17.98;;
8857;SDS011;4465;50.904;4.696;2023-11-21T05:20:09;69.38;;;18.30;;
8857;SDS011;4465;50.904;4.696;2023-11-21T05:22:39;68.53;;;16.70;;
8857;SDS011;4465;50.904;4.696;2023-11-21T05:25:08;67.03;;;17.85;;
8857;SDS011;4465;50.904;4.696;2023-11-21T05:27:34;61.85;;;16.92;;
8857;SDS011;4465;50.904;4.696;2023-11-21T05:30:04;70.90;;;17.42;;
8857;SDS011;4465;50.904;4.696;2023-11-21T05:32:31;61.65;;;16.30;;
8857;SDS011;4465;50.904;4.696;2023-11-21T05:35:03;59.10;;;17.08;;
8857;SDS011;4465;50.904;4.696;2023-11-21T05:37:34;69.95;;;18.55;;
8857;SDS011;4465;50.904;4.696;2023-11-21T05:40:01;59.78;;;17.27;;
8857;SDS011;4465;50.904;4.696;2023-11-21T05:42:31;71.68;;;17.48;;
8857;SDS011;4465;50.904;4.696;2023-11-21T05:44:58;70.97;;;17.60;;
8857;SDS011;4465;50.904;4.696;2023-11-21T05:47:43;66.30;;;16.17;;
8857;SDS011;4465;50.904;4.696;2023-11-21T05:50:13;57.45;;;15.30;;
8857;SDS011;4465;50.904;4.696;2023-11-21T05:52:40;66.97;;;17.15;;
8857;SDS011;4465;50.904;4.696;2023-11-21T05:55:07;56.00;;;15.50;;
8857;SDS011;4465;50.904;4.696;2023-11-21T05:57:34;65.77;;;15.60;;
8857;SDS011;4465;50.904;4.696;2023-11-21T06:00:05;56.95;;;14.70;;
8857;SDS011;4465;50.904;4.696;2023-11-21T06:02:40;49.97;;;14.73;;
8857;SDS011;4465;50.904;4.696;2023-11-21T06:05:24;56.40;;;14.60;;
8857;SDS011;4465;50.904;4.696;2023-11-21T06:07:57;54.35;;;14.43;;
8857;SDS011;4465;50.904;4.696;2023-11-21T06:10:24;64.75;;;15.10;;
8857;SDS011;4465;50.904;4.696;2023-11-21T06:12:53;52.80;;;14.20;;
8857;SDS011;4465;50.904;4.696;2023-11-21T06:15:19;71.95;;;14.00;;
8857;SDS011;4465;50.904;4.696;2023-11-21T06:17:50;66.55;;;15.57;;
8857;SDS011;4465;50.904;4.696;2023-11-21T06:20:19;52.00;;;12.98;;
8857;SDS011;4465;50.904;4.696;2023-11-21T06:25:16;61.55;;;15.77;;
8857;SDS011;4465;50.904;4.696;2023-11-21T06:27:43;60.72;;;15.13;;
8857;SDS011;4465;50.904;4.696;2023-11-21T06:30:13;57.50;;;14.38;;
8857;SDS011;4465;50.904;4.696;2023-11-21T06:32:40;59.65;;;14.88;;
8857;SDS011;4465;50.904;4.696;2023-11-21T06:35:09;60.20;;;15.02;;
8857;SDS011;4465;50.904;4.696;2023-11-21T06:37:36;59.80;;;15.02;;
8857;SDS011;4465;50.904;4.696;2023-11-21T06:40:03;61.95;;;15.20;;
8857;SDS011;4465;50.904;4.696;2023-11-21T06:42:29;56.15;;;15.45;;
8857;SDS011;4465;50.904;4.696;2023-11-21T06:44:55;50.45;;;14.00;;
8857;SDS011;4465;50.904;4.696;2023-11-21T06:47:23;59.10;;;14.90;;
8857;SDS011;4465;50.904;4.696;2023-11-21T06:49:55;56.85;;;15.07;;
8857;SDS011;4465;50.904;4.696;2023-11-21T06:52:21;59.58;;;14.73;;
8857;SDS011;4465;50.904;4.696;2023-11-21T06:54:47;59.97;;;15.32;;
8857;SDS011;4465;50.904;4.696;2023-11-21T06:57:14;51.13;;;15.52;;
8857;SDS011;4465;50.904;4.696;2023-11-21T06:59:41;56.28;;;16.23;;
8857;SDS011;4465;50.904;4.696;2023-11-21T07:02:07;62.72;;;16.15;;
8857;SDS011;4465;50.904;4.696;2023-11-21T07:04:33;55.58;;;15.85;;
8857;SDS011;4465;50.904;4.696;2023-11-21T07:06:59;55.97;;;15.68;;
8857;SDS011;4465;50.904;4.696;2023-11-21T07:09:25;53.38;;;15.35;;
8857;SDS011;4465;50.904;4.696;2023-11-21T07:11:54;45.47;;;14.65;;
8857;SDS011;4465;50.904;4.696;2023-11-21T07:14:20;50.63;;;13.20;;
8857;SDS011;4465;50.904;4.696;2023-11-21T07:16:47;45.00;;;13.90;;
8857;SDS011;4465;50.904;4.696;2023-11-21T07:19:13;40.20;;;13.38;;
8857;SDS011;4465;50.904;4.696;2023-11-21T07:21:39;43.20;;;13.70;;
8857;SDS011;4465;50.904;4.696;2023-11-21T07:24:08;42.47;;;13.75;;
8857;SDS011;4465;50.904;4.696;2023-11-21T07:26:34;50.08;;;14.27;;
8857;SDS011;4465;50.904;4.696;2023-11-21T07:29:03;53.25;;;13.55;;
8857;SDS011;4465;50.904;4.696;2023-11-21T07:31:29;49.88;;;15.00;;
8857;SDS011;4465;50.904;4.696;2023-11-21T07:33:55;45.85;;;14.93;;
8857;SDS011;4465;50.904;4.696;2023-11-21T07:36:24;49.00;;;13.65;;
8857;SDS011;4465;50.904;4.696;2023-11-21T07:38:50;51.63;;;15.52;;
8857;SDS011;4465;50.904;4.696;2023-11-21T07:41:17;46.53;;;14.40;;
8857;SDS011;4465;50.904;4.696;2023-11-21T07:43:46;49.33;;;15.90;;
8857;SDS011;4465;50.904;4.696;2023-11-21T07:46:15;46.92;;;15.13;;
8857;SDS011;4465;50.904;4.696;2023-11-21T07:48:43;41.40;;;15.40;;
8857;SDS011;4465;50.904;4.696;2023-11-21T07:51:09;45.15;;;15.70;;
8857;SDS011;4465;50.904;4.696;2023-11-21T07:53:37;55.17;;;16.67;;
8857;SDS011;4465;50.904;4.696;2023-11-21T07:56:03;53.75;;;18.45;;
8857;SDS011;4465;50.904;4.696;2023-11-21T07:58:30;47.10;;;16.50;;
8857;SDS011;4465;50.904;4.696;2023-11-21T08:00:58;58.33;;;17.42;;
8857;SDS011;4465;50.904;4.696;2023-11-21T08:03:25;57.85;;;19.00;;
8857;SDS011;4465;50.904;4.696;2023-11-21T08:06:00;50.30;;;17.13;;
8857;SDS011;4465;50.904;4.696;2023-11-21T08:08:28;59.42;;;18.77;;
8857;SDS011;4465;50.904;4.696;2023-11-21T08:10:54;56.55;;;18.35;;
8857;SDS011;4465;50.904;4.696;2023-11-21T08:13:27;55.55;;;17.75;;
8857;SDS011;4465;50.904;4.696;2023-11-21T08:15:54;53.10;;;17.38;;
8857;SDS011;4465;50.904;4.696;2023-11-21T08:18:28;53.28;;;17.33;;
8857;SDS011;4465;50.904;4.696;2023-11-21T08:20:57;54.45;;;17.15;;
8857;SDS011;4465;50.904;4.696;2023-11-21T08:23:28;63.42;;;19.45;;
8857;SDS011;4465;50.904;4.696;2023-11-21T08:25:57;50.10;;;18.73;;
8857;SDS011;4465;50.904;4.696;2023-11-21T08:28:24;47.58;;;18.25;;
8857;SDS011;4465;50.904;4.696;2023-11-21T08:30:53;62.38;;;18.92;;
8857;SDS011;4465;50.904;4.696;2023-11-21T08:33:19;54.58;;;19.10;;
8857;SDS011;4465;50.904;4.696;2023-11-21T08:35:48;57.20;;;19.55;;
8857;SDS011;4465;50.904;4.696;2023-11-21T08:38:16;60.60;;;19.25;;
8857;SDS011;4465;50.904;4.696;2023-11-21T08:41:05;86.32;;;19.98;;
8857;SDS011;4465;50.904;4.696;2023-11-21T08:43:36;71.68;;;20.27;;
8857;SDS011;4465;50.904;4.696;2023-11-21T08:46:08;73.90;;;19.75;;
8857;SDS011;4465;50.904;4.696;2023-11-21T08:48:35;64.90;;;19.85;;
8857;SDS011;4465;50.904;4.696;2023-11-21T08:51:02;70.47;;;20.40;;
8857;SDS011;4465;50.904;4.696;2023-11-21T08:55:56;87.82;;;22.05;;
8857;SDS011;4465;50.904;4.696;2023-11-21T08:58:22;76.82;;;19.85;;
8857;SDS011;4465;50.904;4.696;2023-11-21T09:00:48;73.97;;;20.85;;
8857;SDS011;4465;50.904;4.696;2023-11-21T09:03:16;69.63;;;20.77;;
8857;SDS011;4465;50.904;4.696;2023-11-21T09:05:50;78.30;;;20.73;;
8857;SDS011;4465;50.904;4.696;2023-11-21T09:08:16;65.97;;;21.63;;
8857;SDS011;4465;50.904;4.696;2023-11-21T09:10:42;65.63;;;20.25;;
8857;SDS011;4465;50.904;4.696;2023-11-21T09:13:10;87.90;;;21.70;;
8857;SDS011;4465;50.904;4.696;2023-11-21T09:15:36;69.32;;;21.35;;
8857;SDS011;4465;50.904;4.696;2023-11-21T09:18:04;79.25;;;22.15;;
8857;SDS011;4465;50.904;4.696;2023-11-21T09:20:30;75.53;;;22.20;;
8857;SDS011;4465;50.904;4.696;2023-11-21T09:22:56;81.60;;;23.33;;
8857;SDS011;4465;50.904;4.696;2023-11-21T09:25:22;74.43;;;23.23;;
8857;SDS011;4465;50.904;4.696;2023-11-21T09:27:51;76.68;;;22.85;;
8857;SDS011;4465;50.904;4.696;2023-11-21T09:30:17;68.70;;;21.52;;
8857;SDS011;4465;50.904;4.696;2023-11-21T09:32:43;70.95;;;22.92;;
8857;SDS011;4465;50.904;4.696;2023-11-21T09:35:10;72.03;;;21.55;;
8857;SDS011;4465;50.904;4.696;2023-11-21T09:37:40;62.47;;;19.98;;
8857;SDS011;4465;50.904;4.696;2023-11-21T09:40:08;72.43;;;21.17;;
8857;SDS011;4465;50.904;4.696;2023-11-21T09:45:41;59.28;;;18.40;;
8857;SDS011;4465;50.904;4.696;2023-11-21T09:48:14;61.97;;;18.63;;
8857;SDS011;4465;50.904;4.696;2023-11-21T09:50:42;59.72;;;18.83;;
8857;SDS011;4465;50.904;4.696;2023-11-21T09:53:18;59.03;;;19.40;;
8857;SDS011;4465;50.904;4.696;2023-11-21T09:56:51;50.78;;;18.27;;
8857;SDS011;4465;50.904;4.696;2023-11-21T09:59:18;58.35;;;18.15;;
8857;SDS011;4465;50.904;4.696;2023-11-21T10:01:47;54.33;;;18.15;;
8857;SDS011;4465;50.904;4.696;2023-11-21T10:04:31;54.20;;;17.83;;
8857;SDS011;4465;50.904;4.696;2023-11-21T10:07:02;52.47;;;17.70;;
8857;SDS011;4465;50.904;4.696;2023-11-21T10:09:41;53.63;;;16.25;;
8857;SDS011;4465;50.904;4.696;2023-11-21T10:12:25;56.83;;;15.82;;
8857;SDS011;4465;50.904;4.696;2023-11-21T10:18:58;71.87;;;17.30;;
8857;SDS011;4465;50.904;4.696;2023-11-21T10:34:22;66.53;;;17.80;;
8857;SDS011;4465;50.904;4.696;2023-11-21T10:36:49;74.05;;;19.42;;
8857;SDS011;4465;50.904;4.696;2023-11-21T10:39:19;72.38;;;18.58;;
8857;SDS011;4465;50.904;4.696;2023-11-21T10:45:38;72.22;;;18.63;;
8857;SDS011;4465;50.904;4.696;2023-11-21T11:03:47;72.95;;;18.25;;
8857;SDS011;4465;50.904;4.696;2023-11-21T11:10:17;51.63;;;17.33;;
8857;SDS011;4465;50.904;4.696;2023-11-21T11:21:26;58.60;;;17.50;;
8857;SDS011;4465;50.904;4.696;2023-11-21T11:59:24;38.45;;;14.40;;
8857;SDS011;4465;50.904;4.696;2023-11-21T12:14:16;33.78;;;12.50;;
8857;SDS011;4465;50.904;4.696;2023-11-21T12:36:56;25.60;;;10.73;;
